Maxville, Indiana
Current Conditions -  °F | °C
As of 7:53 AM on Thursday 23 Oct 2014 (Local Time) from KMIE Reporting Station
Haze Haze  
Wind Chill: 31°   Ceiling: Unl
Heat Index: 31°   Visibility: 5mi
Dew Point: 30°   Wind: 0mph
Humidity: 96%   Direction: NA
Pressure: 30.25"   Gusts: NA
Location:  40.2108°N, 85.1197°W
Report Text: KMIE 231153Z 00000KT 5SM BR CLR M01/M01 A3025 RMK AO2 SLP248 I1001 I6003 T10061011 10022 21006 58002
Loading
Personal Weather Stations






























Interactive Weather Map
Tropical Storm Tracking
New forecast layout! Learn more

10-Day Weather Forecast

Advertisements
Track Severe Weather on mobile